createdAt,value
2022-10-26T00:01:20.307Z,9.60
2022-10-26T00:03:58.705Z,9.60
2022-10-26T00:06:33.537Z,9.60
2022-10-26T00:09:08.563Z,9.50
2022-10-26T00:11:42.801Z,9.50
2022-10-26T00:14:16.473Z,9.50
2022-10-26T00:16:51.937Z,9.40
2022-10-26T00:19:29.566Z,9.40
2022-10-26T00:22:04.343Z,9.30
2022-10-26T00:24:40.039Z,9.30
2022-10-26T00:27:13.590Z,9.70
2022-10-26T00:29:50.600Z,9.20
2022-10-26T00:32:24.772Z,9.10
2022-10-26T00:35:11.839Z,9.10
2022-10-26T00:37:58.509Z,9.00
2022-10-26T00:40:32.094Z,9.10
2022-10-26T00:43:06.361Z,9.00
2022-10-26T00:45:41.865Z,9.00
2022-10-26T00:48:17.843Z,8.90
2022-10-26T00:50:56.288Z,8.90
2022-10-26T00:53:31.435Z,8.90
2022-10-26T00:56:07.311Z,8.90
2022-10-26T00:58:41.418Z,8.80
2022-10-26T01:01:18.407Z,8.80
2022-10-26T01:03:56.443Z,8.70
2022-10-26T01:06:34.082Z,8.70
2022-10-26T01:09:07.808Z,8.70
2022-10-26T01:11:42.710Z,8.70
2022-10-26T01:14:17.817Z,8.70
2022-10-26T01:16:54.986Z,8.60
2022-10-26T01:19:35.851Z,8.60
2022-10-26T01:22:14.639Z,8.60
2022-10-26T01:25:03.612Z,8.60
2022-10-26T01:27:38.596Z,8.50
2022-10-26T01:30:28.916Z,8.50
2022-10-26T01:33:13.826Z,9.20
2022-10-26T01:35:52.988Z,8.40
2022-10-26T01:38:30.329Z,8.40
2022-10-26T01:41:04.325Z,8.40
2022-10-26T01:43:39.914Z,8.40
2022-10-26T01:48:54.040Z,9.20
2022-10-26T01:51:29.075Z,8.40
2022-10-26T01:54:03.899Z,8.40
2022-10-26T01:56:38.677Z,8.40
2022-10-26T01:59:26.915Z,8.30
2022-10-26T02:02:17.497Z,8.30
2022-10-26T02:04:52.086Z,9.00
2022-10-26T02:07:28.742Z,8.30
2022-10-26T02:10:03.743Z,8.20
2022-10-26T02:12:41.027Z,8.70
2022-10-26T02:15:15.552Z,8.20
2022-10-26T02:17:53.865Z,8.20
2022-10-26T02:20:28.846Z,8.20
2022-10-26T02:23:06.076Z,8.10
2022-10-26T02:25:43.471Z,8.90
2022-10-26T02:28:19.318Z,8.10
2022-10-26T02:30:55.145Z,8.10
2022-10-26T02:33:29.009Z,8.00
2022-10-26T02:36:03.733Z,8.00
2022-10-26T02:38:40.763Z,8.00
2022-10-26T02:41:17.325Z,8.00
2022-10-26T02:43:51.374Z,7.90
2022-10-26T02:46:27.775Z,7.90
2022-10-26T02:49:01.845Z,8.70
2022-10-26T02:51:40.510Z,7.80
2022-10-26T02:54:20.091Z,7.80
2022-10-26T02:56:56.083Z,7.80
2022-10-26T02:59:30.447Z,7.70
2022-10-26T03:02:02.848Z,7.70
2022-10-26T03:04:37.261Z,7.80
2022-10-26T03:07:13.887Z,7.60
2022-10-26T03:09:51.012Z,7.70
2022-10-26T03:12:28.062Z,7.60
2022-10-26T03:15:02.396Z,7.60
2022-10-26T03:17:37.730Z,7.50
2022-10-26T03:20:14.150Z,7.50
2022-10-26T03:22:50.949Z,7.40
2022-10-26T03:25:34.615Z,7.40
2022-10-26T03:28:09.507Z,7.40
2022-10-26T03:30:42.315Z,7.70
2022-10-26T03:33:15.826Z,7.40
2022-10-26T03:35:50.608Z,7.40
2022-10-26T03:38:25.183Z,7.30
2022-10-26T03:41:02.058Z,7.30
2022-10-26T03:43:36.551Z,7.30
2022-10-26T03:46:15.734Z,7.20
2022-10-26T03:48:50.865Z,7.20
2022-10-26T03:51:26.769Z,7.20
2022-10-26T03:54:00.692Z,7.20
2022-10-26T03:56:38.128Z,7.20
2022-10-26T03:59:12.316Z,7.20
2022-10-26T04:01:46.759Z,7.20
2022-10-26T04:04:22.983Z,7.10
2022-10-26T04:06:58.036Z,7.10
2022-10-26T04:09:33.150Z,7.10
2022-10-26T04:12:07.711Z,7.20
2022-10-26T04:14:45.038Z,7.10
2022-10-26T04:17:19.170Z,7.10
2022-10-26T04:19:56.553Z,7.00
2022-10-26T04:22:30.891Z,7.00
2022-10-26T04:25:05.237Z,7.00
2022-10-26T04:27:39.962Z,7.00
2022-10-26T04:30:18.440Z,7.00
2022-10-26T04:32:51.633Z,7.00
2022-10-26T04:35:25.915Z,7.00
2022-10-26T04:38:05.112Z,6.90
2022-10-26T04:40:39.460Z,6.90
2022-10-26T04:43:14.088Z,6.90
2022-10-26T04:45:55.781Z,6.90
2022-10-26T04:48:30.299Z,6.80
2022-10-26T04:51:05.110Z,6.80
2022-10-26T04:53:39.463Z,6.80
2022-10-26T04:56:14.104Z,6.80
2022-10-26T04:58:48.552Z,6.70
2022-10-26T05:01:25.755Z,6.70
2022-10-26T05:03:59.924Z,6.70
2022-10-26T05:06:33.368Z,6.70
2022-10-26T05:09:07.825Z,6.70
2022-10-26T05:11:42.167Z,6.70
2022-10-26T05:14:17.707Z,6.60
2022-10-26T05:16:56.116Z,6.60
2022-10-26T05:19:30.543Z,6.60
2022-10-26T05:22:05.944Z,6.60
2022-10-26T05:24:40.539Z,6.60
2022-10-26T05:27:15.112Z,6.70
2022-10-26T05:29:48.884Z,6.60
2022-10-26T05:32:27.264Z,6.60
2022-10-26T05:35:04.017Z,6.60
2022-10-26T05:37:38.348Z,6.60
2022-10-26T05:40:13.300Z,6.60
2022-10-26T05:42:49.652Z,6.70
2022-10-26T05:45:24.474Z,6.70
2022-10-26T05:48:02.828Z,7.60
2022-10-26T05:50:39.015Z,6.70
2022-10-26T05:53:13.936Z,6.70
2022-10-26T05:55:49.201Z,6.70
2022-10-26T05:58:25.042Z,6.70
2022-10-26T06:01:03.985Z,6.70
2022-10-26T06:03:46.463Z,6.80
2022-10-26T06:06:22.637Z,6.80
2022-10-26T06:08:59.998Z,6.80
2022-10-26T06:11:44.601Z,6.90
2022-10-26T06:14:20.952Z,6.90
2022-10-26T06:17:27.372Z,7.00
2022-10-26T06:19:59.673Z,7.00
2022-10-26T06:22:48.728Z,7.10
2022-10-26T06:25:37.533Z,7.10
2022-10-26T06:28:15.104Z,7.10
2022-10-26T06:30:49.665Z,7.20
2022-10-26T06:33:29.625Z,7.20
2022-10-26T06:36:07.958Z,7.30
2022-10-26T06:38:44.811Z,7.80
2022-10-26T06:41:19.534Z,8.20
2022-10-26T06:43:59.568Z,8.60
2022-10-26T06:46:35.667Z,9.00
2022-10-26T06:49:12.389Z,9.70
2022-10-26T06:51:46.573Z,10.20
2022-10-26T06:54:22.294Z,10.80
2022-10-26T06:56:56.288Z,11.30
2022-10-26T06:59:42.456Z,11.80
2022-10-26T07:02:15.914Z,12.20
2022-10-26T07:04:49.999Z,12.60
2022-10-26T07:07:24.246Z,13.00
2022-10-26T07:10:02.393Z,13.50
2022-10-26T07:12:37.994Z,13.90
2022-10-26T07:15:15.565Z,14.20
2022-10-26T07:17:50.269Z,14.30
2022-10-26T07:20:25.681Z,14.50
2022-10-26T07:23:00.283Z,14.60
2022-10-26T07:25:34.172Z,14.80
2022-10-26T07:28:10.827Z,14.90
2022-10-26T07:30:52.770Z,15.20
2022-10-26T07:33:30.535Z,15.30
2022-10-26T07:36:05.017Z,15.60
2022-10-26T07:38:39.029Z,15.70
2022-10-26T07:41:14.479Z,16.00
2022-10-26T07:43:51.048Z,16.20
2022-10-26T07:46:27.671Z,16.20
2022-10-26T07:49:02.681Z,16.40
2022-10-26T07:51:38.057Z,16.70
2022-10-26T07:54:12.191Z,16.80
2022-10-26T07:56:46.693Z,17.00
2022-10-26T07:59:18.590Z,17.30
2022-10-26T08:01:56.793Z,17.50
2022-10-26T08:04:30.973Z,17.60
2022-10-26T08:07:05.793Z,17.80
2022-10-26T08:09:42.462Z,18.00
2022-10-26T08:12:17.010Z,18.30
2022-10-26T08:14:51.479Z,18.40
2022-10-26T08:17:28.312Z,18.50
2022-10-26T08:20:02.781Z,18.70
2022-10-26T08:22:36.786Z,18.90
2022-10-26T08:25:13.173Z,19.10
2022-10-26T08:27:49.293Z,19.40
2022-10-26T08:30:25.806Z,19.40
2022-10-26T08:33:07.212Z,19.50
2022-10-26T08:35:37.833Z,19.60
2022-10-26T08:38:13.025Z,19.60
2022-10-26T08:40:47.276Z,19.80
2022-10-26T08:43:21.349Z,19.90
2022-10-26T08:45:54.348Z,19.90
2022-10-26T08:48:32.659Z,19.90
2022-10-26T08:51:10.098Z,20.00
2022-10-26T08:53:44.486Z,20.00
2022-10-26T08:56:21.941Z,20.10
2022-10-26T08:58:55.951Z,20.20
2022-10-26T09:01:30.531Z,20.30
2022-10-26T09:04:08.096Z,20.40
2022-10-26T09:06:47.126Z,20.40
2022-10-26T09:09:21.282Z,20.40
2022-10-26T09:11:57.664Z,20.50
2022-10-26T09:14:36.326Z,20.70
2022-10-26T09:17:12.384Z,20.70
2022-10-26T09:19:55.189Z,20.70
2022-10-26T09:22:30.020Z,20.70
2022-10-26T09:25:07.691Z,20.60
2022-10-26T09:27:45.044Z,20.60
2022-10-26T09:30:20.440Z,20.70
2022-10-26T09:32:55.169Z,20.70
2022-10-26T09:35:32.965Z,20.80
2022-10-26T09:38:07.473Z,20.90
2022-10-26T09:40:41.450Z,20.80
2022-10-26T09:43:14.712Z,20.90
2022-10-26T09:45:49.519Z,20.90
2022-10-26T09:48:24.959Z,21.00
2022-10-26T09:51:04.777Z,21.00
2022-10-26T09:53:39.392Z,21.00
2022-10-26T09:56:14.403Z,21.00
2022-10-26T09:58:48.090Z,21.20
2022-10-26T10:01:25.705Z,21.20
2022-10-26T10:04:14.869Z,21.10
2022-10-26T10:06:51.943Z,21.10
2022-10-26T10:09:26.355Z,20.90
2022-10-26T10:12:01.430Z,20.90
2022-10-26T10:14:39.003Z,20.90
2022-10-26T10:17:21.319Z,20.80
2022-10-26T10:19:57.729Z,20.80
2022-10-26T10:22:34.694Z,20.80
2022-10-26T10:25:15.177Z,20.70
2022-10-26T10:27:49.562Z,20.80
2022-10-26T10:30:24.884Z,20.60
2022-10-26T10:33:08.951Z,20.60
2022-10-26T10:35:43.288Z,20.60
2022-10-26T10:38:21.626Z,20.50
2022-10-26T10:40:59.074Z,20.40
2022-10-26T10:43:33.589Z,20.40
2022-10-26T10:46:08.897Z,20.20
2022-10-26T10:48:42.926Z,20.10
2022-10-26T10:51:21.551Z,20.00
2022-10-26T10:54:01.251Z,20.00
2022-10-26T10:56:36.493Z,20.00
2022-10-26T10:59:27.873Z,19.90
2022-10-26T11:02:06.111Z,19.80
2022-10-26T11:05:06.992Z,19.80
2022-10-26T11:07:45.790Z,19.70
2022-10-26T11:10:24.673Z,19.70
2022-10-26T11:12:59.438Z,19.70
2022-10-26T11:15:34.168Z,19.70
2022-10-26T11:18:11.115Z,19.60
2022-10-26T11:20:45.956Z,19.60
2022-10-26T11:23:21.349Z,19.60
2022-10-26T11:26:00.142Z,19.50
2022-10-26T11:28:37.579Z,19.50
2022-10-26T11:31:16.226Z,19.40
2022-10-26T11:33:50.900Z,19.40
2022-10-26T11:36:26.161Z,19.40
2022-10-26T11:39:06.150Z,19.30
2022-10-26T11:41:44.264Z,19.30
2022-10-26T11:44:19.263Z,19.20
2022-10-26T11:46:53.863Z,19.20
2022-10-26T11:49:30.125Z,19.10
2022-10-26T11:52:06.051Z,19.10
2022-10-26T11:54:41.070Z,19.00
2022-10-26T11:57:18.228Z,19.00
2022-10-26T11:59:53.341Z,19.00
2022-10-26T12:02:27.406Z,18.90
2022-10-26T12:05:03.189Z,18.90
2022-10-26T12:07:38.249Z,18.80
2022-10-26T12:10:14.465Z,18.80
2022-10-26T12:12:52.437Z,18.80
2022-10-26T12:15:35.474Z,18.70
2022-10-26T12:18:36.819Z,18.70
2022-10-26T12:21:15.519Z,18.60
2022-10-26T12:23:56.911Z,18.60
2022-10-26T12:26:52.206Z,18.60
2022-10-26T12:29:47.160Z,18.50
2022-10-26T12:32:37.272Z,18.50
2022-10-26T12:35:28.018Z,18.50
2022-10-26T12:38:02.038Z,18.50
2022-10-26T12:40:47.182Z,18.50
2022-10-26T12:46:43.292Z,18.40
2022-10-26T12:49:44.545Z,18.40
2022-10-26T12:52:19.715Z,18.40
2022-10-26T12:54:59.024Z,18.40
2022-10-26T12:57:37.630Z,18.40
2022-10-26T13:00:15.432Z,18.30
2022-10-26T13:02:53.512Z,18.30
2022-10-26T13:05:25.862Z,18.30
2022-10-26T13:08:04.346Z,18.30
2022-10-26T13:10:38.829Z,18.30
2022-10-26T13:13:25.188Z,18.30
2022-10-26T13:16:04.553Z,18.30
2022-10-26T13:18:44.624Z,18.30
2022-10-26T13:21:17.543Z,18.20
2022-10-26T13:24:02.259Z,18.20
2022-10-26T13:26:58.073Z,18.20
2022-10-26T13:29:35.780Z,18.20
2022-10-26T13:32:10.385Z,18.20
2022-10-26T13:34:43.078Z,18.20
2022-10-26T13:37:20.521Z,18.20
2022-10-26T13:39:56.218Z,18.10
2022-10-26T13:42:30.828Z,18.20
2022-10-26T13:45:10.419Z,18.20
2022-10-26T13:47:44.625Z,18.20
2022-10-26T13:50:19.405Z,18.20
2022-10-26T13:52:53.776Z,18.20
2022-10-26T13:55:28.354Z,18.20
2022-10-26T13:58:09.374Z,18.20
2022-10-26T14:00:45.418Z,18.20
2022-10-26T14:03:18.001Z,18.20
2022-10-26T14:05:51.931Z,18.20
2022-10-26T14:08:26.102Z,18.20
2022-10-26T14:11:00.406Z,18.20
2022-10-26T14:13:34.420Z,18.20
2022-10-26T14:16:15.936Z,18.20
2022-10-26T14:18:51.919Z,18.10
2022-10-26T14:21:26.143Z,18.10
2022-10-26T14:24:00.432Z,18.10
2022-10-26T14:26:34.163Z,18.10
2022-10-26T14:29:08.118Z,18.10
2022-10-26T14:31:44.420Z,18.10
2022-10-26T14:34:16.678Z,18.10
2022-10-26T14:36:51.639Z,18.10
2022-10-26T14:39:28.130Z,18.10
2022-10-26T14:42:02.095Z,18.00
2022-10-26T14:44:35.793Z,18.00
2022-10-26T14:47:18.508Z,18.00
2022-10-26T14:49:51.088Z,18.00
2022-10-26T14:52:27.638Z,17.90
2022-10-26T14:55:04.005Z,17.90
2022-10-26T14:57:38.452Z,17.90
2022-10-26T15:00:16.236Z,17.80
2022-10-26T15:05:34.639Z,17.70
2022-10-26T15:08:33.717Z,17.70
2022-10-26T15:11:17.022Z,17.70
2022-10-26T15:13:50.861Z,17.60
2022-10-26T15:16:25.447Z,17.50
2022-10-26T15:19:01.656Z,17.50
2022-10-26T15:21:37.060Z,17.40
2022-10-26T15:24:20.544Z,17.30
2022-10-26T15:26:53.338Z,17.30
2022-10-26T15:29:39.893Z,17.20
2022-10-26T15:32:24.090Z,17.20
2022-10-26T15:35:24.899Z,17.10
2022-10-26T15:38:01.871Z,17.10
2022-10-26T15:40:37.343Z,17.00
2022-10-26T15:43:12.666Z,16.90
2022-10-26T15:45:49.196Z,16.90
2022-10-26T15:48:25.834Z,16.80
2022-10-26T15:50:59.625Z,16.70
2022-10-26T15:53:36.272Z,16.60
2022-10-26T15:56:13.625Z,16.50
2022-10-26T15:58:46.067Z,16.50
2022-10-26T16:01:20.168Z,16.40
2022-10-26T16:03:53.777Z,16.30
2022-10-26T16:06:28.660Z,16.20
2022-10-26T16:09:03.617Z,16.20
2022-10-26T16:11:37.666Z,16.10
2022-10-26T16:14:13.147Z,16.00
2022-10-26T16:16:46.675Z,15.90
2022-10-26T16:19:36.092Z,15.80
2022-10-26T16:22:09.891Z,15.80
2022-10-26T16:24:46.317Z,15.70
2022-10-26T16:27:19.659Z,15.60
2022-10-26T16:29:53.828Z,15.50
2022-10-26T16:32:27.665Z,15.40
2022-10-26T16:35:01.723Z,15.30
2022-10-26T16:37:35.649Z,15.30
2022-10-26T16:40:12.901Z,15.20
2022-10-26T16:42:46.823Z,15.10
2022-10-26T16:45:20.795Z,15.00
2022-10-26T16:47:54.707Z,15.00
2022-10-26T16:50:30.006Z,15.00
2022-10-26T16:53:05.666Z,14.90
2022-10-26T16:55:44.319Z,14.90
2022-10-26T16:58:17.637Z,14.80
2022-10-26T17:00:56.869Z,14.70
2022-10-26T17:03:31.397Z,14.60
2022-10-26T17:06:07.327Z,14.60
2022-10-26T17:08:44.281Z,14.50
2022-10-26T17:11:21.633Z,14.40
2022-10-26T17:13:59.263Z,14.40
2022-10-26T17:16:33.298Z,14.30
2022-10-26T17:19:07.160Z,14.30
2022-10-26T17:21:41.492Z,14.20
2022-10-26T17:24:16.459Z,14.10
2022-10-26T17:26:53.401Z,14.00
2022-10-26T17:29:27.431Z,13.90
2022-10-26T17:32:01.325Z,13.80
2022-10-26T17:34:34.970Z,13.80
2022-10-26T17:37:09.276Z,13.70
2022-10-26T17:39:43.013Z,13.60
2022-10-26T17:42:20.267Z,13.50
2022-10-26T17:44:54.191Z,13.40
2022-10-26T17:47:28.105Z,13.40
2022-10-26T17:50:03.659Z,13.40
2022-10-26T17:52:36.725Z,13.30
2022-10-26T17:55:12.446Z,13.30
2022-10-26T17:57:48.511Z,13.20
2022-10-26T18:00:23.222Z,13.20
2022-10-26T18:05:52.281Z,13.10
2022-10-26T18:08:26.237Z,13.00
2022-10-26T18:11:01.166Z,13.00
2022-10-26T18:13:37.574Z,12.90
2022-10-26T18:16:11.235Z,12.90
2022-10-26T18:18:46.608Z,12.80
2022-10-26T18:21:22.258Z,12.80
2022-10-26T18:23:56.248Z,12.80
2022-10-26T18:26:31.814Z,12.80
2022-10-26T18:29:08.953Z,12.70
2022-10-26T18:31:43.533Z,12.70
2022-10-26T18:34:16.809Z,12.70
2022-10-26T18:36:51.170Z,12.60
2022-10-26T18:39:25.255Z,12.60
2022-10-26T18:42:01.300Z,12.50
2022-10-26T18:44:38.069Z,12.50
2022-10-26T18:47:13.088Z,12.30
2022-10-26T18:49:47.824Z,12.30
2022-10-26T18:52:27.454Z,12.30
2022-10-26T18:55:01.968Z,12.20
2022-10-26T18:57:37.410Z,12.20
2022-10-26T19:00:16.596Z,12.10
2022-10-26T19:02:52.843Z,12.10
2022-10-26T19:05:28.936Z,12.10
2022-10-26T19:08:05.116Z,12.00
2022-10-26T19:10:41.257Z,12.00
2022-10-26T19:13:16.192Z,11.90
2022-10-26T19:15:54.436Z,11.90
2022-10-26T19:18:29.846Z,11.90
2022-10-26T19:21:05.880Z,11.90
2022-10-26T19:23:41.197Z,11.90
2022-10-26T19:26:16.273Z,11.80
2022-10-26T19:28:55.553Z,11.80
2022-10-26T19:31:36.019Z,11.70
2022-10-26T19:34:11.119Z,11.70
2022-10-26T19:36:46.568Z,11.70
2022-10-26T19:39:25.458Z,11.60
2022-10-26T19:42:04.702Z,11.60
2022-10-26T19:44:40.895Z,11.50
2022-10-26T19:47:18.399Z,11.50
2022-10-26T19:49:52.180Z,11.50
2022-10-26T19:52:27.522Z,11.40
2022-10-26T19:55:00.431Z,11.40
2022-10-26T19:57:35.581Z,11.30
2022-10-26T20:00:11.852Z,11.30
2022-10-26T20:02:56.315Z,11.30
2022-10-26T20:05:30.309Z,11.20
2022-10-26T20:08:05.580Z,11.20
2022-10-26T20:10:44.041Z,11.20
2022-10-26T20:13:23.522Z,11.10
2022-10-26T20:15:58.457Z,11.10
2022-10-26T20:18:41.179Z,11.10
2022-10-26T20:21:18.962Z,11.00
2022-10-26T20:23:53.323Z,11.00
2022-10-26T20:26:28.630Z,10.90
2022-10-26T20:29:03.648Z,10.90
2022-10-26T20:31:36.313Z,10.90
2022-10-26T20:34:14.470Z,10.90
2022-10-26T20:36:48.597Z,10.80
2022-10-26T20:39:25.107Z,10.80
2022-10-26T20:42:00.933Z,10.80
2022-10-26T20:44:37.312Z,10.80
2022-10-26T20:47:11.810Z,10.70
2022-10-26T20:49:50.526Z,10.70
2022-10-26T20:52:26.049Z,10.70
2022-10-26T20:55:03.047Z,10.70
2022-10-26T20:57:37.369Z,10.60
2022-10-26T21:00:12.145Z,10.60
2022-10-26T21:02:49.758Z,10.60
2022-10-26T21:05:28.530Z,10.60
2022-10-26T21:08:05.047Z,10.50
2022-10-26T21:10:39.337Z,10.50
2022-10-26T21:13:13.437Z,10.50
2022-10-26T21:15:48.581Z,10.40
2022-10-26T21:18:21.610Z,10.40
2022-10-26T21:20:57.457Z,10.40
2022-10-26T21:23:32.570Z,10.40
2022-10-26T21:26:05.549Z,10.30
2022-10-26T21:28:41.789Z,10.30
2022-10-26T21:31:16.549Z,10.30
2022-10-26T21:33:50.237Z,10.20
2022-10-26T21:36:30.721Z,10.20
2022-10-26T21:39:05.654Z,10.20
2022-10-26T21:41:39.166Z,10.10
2022-10-26T21:44:32.840Z,10.10
2022-10-26T21:47:08.638Z,10.10
2022-10-26T21:49:43.600Z,10.10
2022-10-26T21:52:16.222Z,10.10
2022-10-26T21:54:53.353Z,10.10
2022-10-26T21:57:28.173Z,10.10
2022-10-26T22:00:03.000Z,10.10
2022-10-26T22:02:47.594Z,10.00
2022-10-26T22:05:22.261Z,10.00
2022-10-26T22:07:56.403Z,10.00
2022-10-26T22:10:33.174Z,10.00
2022-10-26T22:13:08.000Z,9.90
2022-10-26T22:15:44.759Z,9.90
2022-10-26T22:21:51.082Z,9.90
2022-10-26T22:24:28.808Z,9.90
2022-10-26T22:27:06.103Z,9.90
2022-10-26T22:29:40.087Z,9.90
2022-10-26T22:32:16.762Z,9.90
2022-10-26T22:35:00.294Z,9.90
2022-10-26T22:37:44.712Z,9.90
2022-10-26T22:40:19.678Z,9.90
2022-10-26T22:42:57.647Z,9.80
2022-10-26T22:45:30.793Z,9.90
2022-10-26T22:50:43.979Z,9.90
2022-10-26T22:53:19.037Z,9.90
2022-10-26T22:55:53.003Z,9.80
2022-10-26T22:58:30.033Z,9.90
2022-10-26T23:01:06.751Z,9.90
2022-10-26T23:03:41.252Z,9.90
2022-10-26T23:06:16.118Z,9.80
2022-10-26T23:08:53.234Z,9.80
2022-10-26T23:11:27.537Z,9.80
2022-10-26T23:14:04.359Z,9.80
2022-10-26T23:16:38.524Z,9.80
2022-10-26T23:19:13.029Z,9.90
2022-10-26T23:21:49.353Z,9.90
2022-10-26T23:24:23.614Z,9.90
2022-10-26T23:26:56.464Z,9.90
2022-10-26T23:29:33.282Z,9.90
2022-10-26T23:32:07.163Z,9.90
2022-10-26T23:34:41.513Z,9.90
2022-10-26T23:37:15.196Z,9.90
2022-10-26T23:39:49.003Z,9.90
2022-10-26T23:42:24.032Z,9.90
2022-10-26T23:45:00.985Z,9.90
2022-10-26T23:47:35.331Z,10.00
2022-10-26T23:50:11.061Z,10.00
2022-10-26T23:52:45.232Z,10.00
2022-10-26T23:55:20.068Z,10.00
2022-10-26T23:57:55.337Z,10.00
